Arlington, VA (22205)

12:33 PM EST on February 10, 2016 (GMT -0500)
Westover | | Change Station
CLOSE
Current Station
Personal Weather Station
Location: Arlington, VA
Elevation: 305 ft
Nearby Weather Stations

Elev 305 ft 38.88 °N, 77.15 °W | Updated 0 second ago

Partly Cloudy
Partly Cloudy
37.2 °F
Feels Like 37 °F
N
0.9
Wind Variable Wind from West
Gusts 2.5 mph

Today
High -- | Low -- °F
--% Chance of Precip.
Yesterday
High -- | Low -- °F
Precip. -- in
Pressure 29.81 in
Visibility 10.0 miles
Clouds Scattered Clouds 5000 ft
Scattered Clouds 11000 ft
Scattered Clouds 14000 ft
Windchill 37 °F
Dew Point 14 °F
Humidity 38%
Rainfall 0.00 in
Snow Depth Not available.
7:06 AM 5:39 PM
Waxing Crescent, 6% visible
METAR KDCA 101652Z 29014G19KT 10SM SCT050 SCT110 SCT140 03/M09 A2981 RMK AO2 SLP094 T00281089
Pressure 29.81 in
Visibility 10.0 miles
Clouds Scattered Clouds 5000 ft
Scattered Clouds 11000 ft
Scattered Clouds 14000 ft
Windchill 37 °F
Dew Point 14 °F
Humidity 38%
Rainfall 0.00 in
Snow Depth Not available.
7:06 AM 5:39 PM
Waxing Crescent, 6% visible
METAR KDCA 101652Z 29014G19KT 10SM SCT050 SCT110 SCT140 03/M09 A2981 RMK AO2 SLP094 T00281089

10-Day Weather Forecast

Almanac

Astronomy

Feb. 10, 2016 Rise Set
Actual Time
Civil Twilight
Nautical Twilight
Astronomical Twilight
Moon
Length of Visible Light
Length of Day
Tomorrow will be .
, % of the Moon is Illuminated

Today's Extremes

State Highs State Lows

Community

WunderPhotos

Upload Photos

1,891,898 photos uploaded!

WunderBlog® & News

Nearby

Air Quality

  Air Quality AQ Index Pollutant
Not available.

Snow Depth

Station Depth Elevation

Earthquake Activity

City Distance Mag. Time & Date
Minimum magnitude displayed is 2.5.

Coastal Water Temperatures

Place Temperature

Stations

Nearby Weather Stations

Station Location Temp. Windchill Dew Point Humidity Wind Precip. Elev Updated Type
                   

Watches & Warnings

There are currently no watches in effect.